FW4654 Weather Reports


Display with metric or nautical units.
time (UTC)temp
F
wind
direction
speed
MPH
gust
MPH
rain 1hr
in
rain 24hr
in
rain mn
in
humidity
%
barometer
mb
20191020004522 51 0.0 0.0 0.01 0.01 0.01 96 1008.5
20191020003525 51 0.0 0.0 0.01 0.01 0.01 96 1008.7
20191020002528 51 0.0 0.0 0.01 0.01 0.01 96 1008.7
20191020001525 51 0.0 0.0 0.01 0.01 0.01 96 1008.5
20191020000516 51 0.0 0.0 0.01 0.01 0.01 96 1008.5
20191019235519 51 0.0 0.0 0.01 0.01 0.01 96 1008.4
20191019234516 51 0.0 0.0 0.00 0.00 0.00 96 1008.5
20191019233526 51 0.0 0.0 0.00 0.00 0.00 96 1008.4
20191019232528 51 0.0 0.0 0.00 0.00 0.00 96 1008.4
20191019231531 52 0.0 0.0 0.00 0.00 0.00 96 1008.5
20191019230516 52 0.0 0.0 0.00 0.00 0.00 96 1008.4
20191019225519 52 0.0 0.0 0.00 0.00 0.00 96 1008.4
20191019224522 52 0.0 0.0 0.00 0.00 0.00 96 1008.4
20191019223525 52 0.0 0.0 0.00 0.00 0.00 95 1008.4
20191019222528 53 0.0 0.0 0.00 0.00 0.00 95 1008.2
20191019221531 53 0.0 0.0 0.00 0.00 0.00 95 1008.2
20191019220516 53 0.0 0.0 0.00 0.00 0.00 95 1008.1
20191019215520 53 0.0 0.0 0.00 0.00 0.00 94 1007.9
20191019214522 53 0.0 0.0 0.00 0.00 0.00 94 1007.7
20191019213527 54 0.0 0.0 0.00 0.00 0.00 94 1007.7
20191019212530 54 0.0 0.0 0.00 0.00 0.00 94 1007.7
20191019211542 54 0.0 0.0 0.00 0.00 0.00 93 1007.5
20191019210517 55 0.0 0.0 0.00 0.00 0.00 92 1007.6
20191019205520 55 0.0 0.0 0.00 0.00 0.00 92 1007.8
20191019204522 56 0.0 0.0 0.00 0.00 0.00 88 1007.7
20191019203531 57 0.0 0.0 0.00 0.00 0.00 84 1007.7
20191019202517 57 282 1.0 3.0 0.00 0.00 0.00 80 1007.4
20191019201532 58 0.0 0.0 0.00 0.00 0.00 77 1007.4
20191019200517 58 0.0 0.0 0.00 0.00 0.00 73 1007.3
20191019195520 59 0.0 0.0 0.00 0.00 0.00 73 1007.3
20191019194523 59 0.0 0.0 0.00 0.00 0.00 72 1007.2
20191019193537 59 270 0.0 2.0 0.00 0.00 0.00 72 1007.5
20191019192529 59 0.0 0.0 0.00 0.00 0.00 72 1007.4
20191019191533 59 338 0.0 2.0 0.00 0.00 0.00 72 1007.4
20191019190518 59 312 1.0 3.0 0.00 0.00 0.00 71 1007.4
20191019185521 59 0.0 0.0 0.00 0.00 0.00 71 1007.5
20191019184524 59 0.0 1.0 0.00 0.00 0.00 71 1007.4
20191019183527 59 7 0.0 2.0 0.00 0.00 0.00 70 1007.7
20191019182530 59 0.0 0.0 0.00 0.00 0.00 69 1007.8
20191019181515 60 0.0 0.0 0.00 0.00 0.00 69 1007.9
20191019180518 59 308 2.0 3.0 0.00 0.00 0.00 69 1008.0
20191019175521 60 332 2.0 3.0 0.00 0.00 0.00 69 1008.2
20191019174524 60 289 2.0 4.0 0.00 0.00 0.00 68 1008.2
20191019173528 60 253 2.0 3.0 0.00 0.00 0.00 68 1008.2
20191019172525 59 286 1.0 2.0 0.00 0.00 0.00 69 1008.2
20191019171516 60 254 2.0 3.0 0.00 0.00 0.00 67 1008.2
20191019170519 60 256 2.0 3.0 0.00 0.00 0.00 66 1008.2
20191019165516 59 212 1.0 3.0 0.00 0.00 0.00 68 1008.3
20191019164525 60 184 1.0 4.0 0.00 0.00 0.00 68 1008.2
20191019163528 59 104 2.0 3.0 0.00 0.00 0.00 68 1008.2
20191019162531 58 158 2.0 3.0 0.00 0.00 0.00 71 1008.5
20191019161517 57 311 2.0 3.0 0.00 0.00 0.00 74 1008.5
20191019160520 56 113 0.0 3.0 0.00 0.00 0.00 74 1008.5
20191019155522 56 109 1.0 2.0 0.00 0.00 0.00 74 1008.5
20191019154526 55 147 2.0 3.0 0.00 0.00 0.00 75 1008.7
20191019153529 55 223 1.0 2.0 0.00 0.00 0.00 76 1008.8
20191019152535 54 158 2.0 2.0 0.00 0.00 0.00 78 1008.9
20191019151517 53 0.0 0.0 0.00 0.00 0.00 80 1009.2
20191019150520 52 103 0.0 2.0 0.00 0.00 0.00 81 1009.0
20191019145523 52 0.0 0.0 0.00 0.00 0.00 81 1008.8
20191019144526 51 124 2.0 3.0 0.00 0.00 0.00 81 1008.8
20191019143530 51 315 0.0 2.0 0.00 0.00 0.00 83 1008.9
20191019142532 50 0.0 0.0 0.00 0.00 0.00 84 1009.0
20191019141517 50 0.0 0.0 0.00 0.00 0.00 84 1009.2
20191019140520 49 158 0.0 1.0 0.00 0.00 0.00 84 1009.1
20191019135524 49 0.0 0.0 0.00 0.00 0.00 85 1009.0
20191019134521 49 0 0.0 2.0 0.00 0.00 0.00 86 1009.0
20191019133518 49 0.0 0.0 0.00 0.00 0.00 86 1008.9
20191019132515 48 0.0 0.0 0.00 0.00 0.00 86 1008.8
20191019131519 48 0.0 0.0 0.00 0.00 0.00 86 1008.8
20191019130521 48 0.0 0.0 0.00 0.00 0.00 87 1008.7
20191019125525 48 124 1.0 3.0 0.00 0.00 0.00 87 1008.7
20191019124528 47 113 0.0 2.0 0.00 0.00 0.00 87 1009.0
20191019123531 47 0.0 0.0 0.00 0.00 0.00 88 1008.7
20191019122515 47 0.0 0.0 0.00 0.00 0.00 88 1008.9
20191019121519 47 0.0 0.0 0.00 0.00 0.00 89 1009.0
20191019120521 46 0.0 0.0 0.00 0.00 0.00 90 1009.1
20191019115524 46 0.0 0.0 0.00 0.00 0.00 91 1009.3
20191019114527 45 0.0 0.0 0.00 0.00 0.00 92 1009.2
20191019113530 45 0.0 0.0 0.00 0.00 0.00 93 1009.3
20191019112515 45 0.0 0.0 0.00 0.00 0.00 93 1009.2
20191019111518 45 0.0 0.0 0.00 0.00 0.00 93 1009.4
20191019110521 44 0.0 0.0 0.00 0.00 0.00 93 1009.5
20191019105524 44 0.0 0.0 0.00 0.00 0.00 93 1009.7
20191019104527 45 0.0 0.0 0.00 0.00 0.00 92 1009.7
20191019103525 45 0.0 0.0 0.00 0.32 0.00 92 1009.7
20191019102521 45 0.0 0.0 0.00 0.32 0.00 92 1009.7
20191019101518 45 0.0 0.0 0.00 0.32 0.00 92 1009.7
20191019100521 45 0.0 0.0 0.00 0.32 0.00 92 1009.8
20191019095524 45 0.0 0.0 0.00 0.32 0.00 92 1009.8
20191019094527 45 0.0 0.0 0.00 0.32 0.00 92 1009.8
20191019093530 45 0.0 0.0 0.00 0.32 0.00 92 1009.7
20191019092533 45 0.0 0.0 0.00 0.32 0.00 93 1009.9
20191019091517 45 0.0 0.0 0.00 0.32 0.00 93 1010.0
20191019090520 45 0.0 0.0 0.00 0.32 0.00 93 1010.1
20191019085524 44 0.0 0.0 0.00 0.32 0.00 93 1010.2
20191019084526 44 0.0 0.0 0.00 0.32 0.00 93 1010.3
20191019083530 44 0.0 0.0 0.00 0.32 0.00 93 1010.3
20191019082532 44 0.0 0.0 0.00 0.32 0.00 93 1010.3
20191019081517 44 0.0 0.0 0.00 0.32 0.00 92 1010.4
20191019080520 44 0.0 0.0 0.00 0.32 0.00 92 1010.5
20191019075523 44 0.0 0.0 0.00 0.32 0.00 91 1010.5
20191019074526 45 0.0 0.0 0.00 0.32 0.00 90 1010.7
20191019073529 45 0.0 0.0 0.00 0.32 0.00 90 1011.1
20191019072526 46 0.0 0.0 0.00 0.32 0.00 89 1011.0
20191019071517 46 0.0 0.0 0.00 0.32 0.00 89 1011.2
20191019070520 46 0.0 0.0 0.00 0.32 0.00 89 1011.3
20191019065517 47 0.0 0.0 0.00 0.32 0.00 87 1011.3
20191019064526 47 0.0 0.0 0.00 0.32 0.00 87 1011.3
20191019063528 47 0.0 0.0 0.00 0.32 0.00 87 1011.1
20191019062532 48 0.0 0.0 0.00 0.32 0.00 85 1011.1
20191019061516 48 0.0 0.0 0.00 0.32 0.00 85 1011.2
20191019060519 48 306 1.0 3.0 0.00 0.32 0.00 85 1011.2
20191019055522 48 0.0 0.0 0.00 0.32 0.00 85 1011.1
20191019054525 48 338 0.0 1.0 0.00 0.32 0.00 84 1011.3
20191019053528 48 122 1.0 3.0 0.00 0.32 0.00 84 1011.3
20191019052531 48 0.0 0.0 0.00 0.32 0.00 85 1011.1
20191019051516 48 0.0 0.0 0.00 0.32 0.00 85 1011.1
20191019050519 47 113 0.0 4.0 0.00 0.32 0.00 86 1011.1
20191019045522 47 0.0 0.0 0.00 0.32 0.32 88 1011.1
20191019044524 47 0.0 0.0 0.00 0.32 0.32 88 1011.3
20191019043528 47 0.0 0.0 0.00 0.32 0.32 88 1011.1
20191019042531 47 0.0 0.0 0.00 0.32 0.32 89 1011.5
20191019041515 47 133 1.0 2.0 0.00 0.32 0.32 90 1011.5
20191019040519 47 126 1.0 2.0 0.00 0.32 0.32 90 1011.5
20191019035522 47 112 2.0 2.0 0.00 0.32 0.32 90 1011.6
20191019034519 47 98 2.0 3.0 0.00 0.32 0.32 89 1011.8
20191019033516 47 120 0.0 2.0 0.00 0.32 0.32 89 1011.9
20191019032530 48 0.0 0.0 0.00 0.32 0.32 89 1012.1
20191019031515 48 113 0.0 2.0 0.00 0.32 0.32 88 1012.2
20191019030518 48 0.0 0.0 0.00 0.32 0.32 87 1012.4
20191019025521 48 0.0 0.0 0.00 0.32 0.32 87 1012.5
20191019024524 49 0.0 0.0 0.00 0.32 0.32 86 1012.6
20191019023527 49 0.0 0.0 0.00 0.32 0.32 86 1012.6
20191019022530 49 0.0 0.0 0.00 0.32 0.32 86 1012.5
20191019021533 49 0.0 0.0 0.00 0.32 0.32 86 1012.2
20191019020518 49 0.0 0.0 0.00 0.32 0.32 84 1012.1
20191019015521 49 0.0 0.0 0.00 0.32 0.32 82 1012.1
20191019014524 50 0.0 0.0 0.00 0.32 0.32 80 1012.3
20191019013527 50 0.0 0.0 0.00 0.32 0.32 80 1011.9
20191019012530 50 0.0 0.0 0.00 0.32 0.32 80 1011.9
20191019011533 50 0.0 0.0 0.00 0.32 0.32 79 1012.0
20191019010518 50 0.0 0.0 0.00 0.32 0.32 78 1012.1
20191019005520 50 0.0 0.0 0.00 0.32 0.32 78 1012.1